Latest Weather Observations for Norfolk Island

IDN60801

Issued at 5:22 pm EST Friday 22 June 2018 (issued every 10 minutes, with the page automatically refreshed every 10 minutes)

About weather observations | Map of weather stations | Latest weather observations for NSW | Other Formats
Station Details ID: 200288 Name: NORFOLK ISLAND AERO Lat: -29.04 Lon: 167.94 Height: 111.73 m
Data from the previous 72 hours. | See also: Recent months at Norfolk Island
Date/Time
EST
Temp
°C
App
Temp
°C
Dew
Point
°C
Rel
Hum
%
Delta-T
°C
Wind Press
QNH
hPa
Press
MSL
hPa
Rain since
9am
mm
Dir  Spd
km/h
Gust
km/h
Spd
kts
Gust
kts
22/05:00pm 16.7 13.8 12.3 75 2.4 S 19 28 10 15 1019.1 1018.9 0.0
22/04:30pm 16.8 13.3 12.3 75 2.5 S 22 30 12 16 1018.8 1018.6 0.0
22/04:00pm 16.9 12.7 11.2 69 3.1 S 24 37 13 20 1018.5 1018.3 0.0
22/03:30pm 17.3 13.5 12.4 73 2.7 S 24 32 13 17 1018.2 1018.0 0.0
22/03:00pm 17.6 14.5 12.3 71 2.9 S 20 33 11 18 1018.0 1017.8 0.0
22/02:30pm 17.8 14.5 12.7 72 2.9 S 22 33 12 18 1018.0 1017.8 0.0
22/02:00pm 16.8 14.9 12.9 78 2.2 S 15 22 8 12 1018.0 1017.8 0.0
22/01:30pm 17.4 12.7 12.1 71 2.9 S 28 39 15 21 1017.9 1017.7 0.0
22/01:00pm 17.9 13.5 13.0 73 2.8 S 28 46 15 25 1017.8 1017.6 0.0
22/12:30pm 18.4 14.7 12.8 70 3.2 S 24 35 13 19 1017.8 1017.6 0.0
22/12:00pm 18.5 13.7 11.6 64 3.8 SSW 28 39 15 21 1018.0 1017.8 0.0
22/11:30am 18.2 13.3 11.3 64 3.8 SSW 28 41 15 22 1018.2 1018.0 0.0
22/11:00am 18.5 14.2 10.6 60 4.3 SSW 24 33 13 18 1018.3 1018.1 0.0
22/10:32am 18.4 13.4 11.0 62 4.0 SSW 28 48 15 26 1018.5 1018.3 0.0
22/10:30am 18.5 14.1 11.6 64 3.8 SSW 26 39 14 21 1018.5 1018.3 0.0
22/10:00am 18.0 12.2 11.6 66 3.5 SSW 33 44 18 24 1018.8 1018.6 0.0
22/09:30am 18.1 13.4 11.9 67 3.4 SSW 28 43 15 23 1018.9 1018.7 0.0
22/09:00am 17.9 13.3 11.2 65 3.6 SSW 26 39 14 21 1018.9 1018.7 0.0
22/08:30am 17.4 12.5 11.2 67 3.4 S 28 46 15 25 1018.8 1018.6 0.0
22/08:26am 17.2 12.2 11.0 67 3.4 S 28 46 15 25 1018.7 1018.5 0.0
22/08:00am 17.6 13.6 11.9 69 3.1 S 24 35 13 19 1018.6 1018.4 -
22/07:30am 16.0 11.9 12.7 81 1.8 SSW 26 41 14 22 1018.6 1018.4 -
22/07:03am 16.8 11.9 12.5 76 2.4 SSW 30 52 16 28 1018.2 1018.0 -
22/07:00am 17.2 12.5 12.1 72 2.8 SSW 28 35 15 19 1018.2 1018.0 -
22/06:30am 16.4 11.7 12.0 75 2.4 SSW 28 44 15 24 1017.9 1017.7 -
22/06:17am 16.0 11.4 12.4 79 2.0 SSW 28 46 15 25 1017.9 1017.7 -
22/06:00am 16.3 12.6 11.5 73 2.6 SSW 22 37 12 20 1017.7 1017.5 -
22/05:30am 16.2 11.3 12.4 78 2.1 S 30 41 16 22 1017.5 1017.3 -
22/05:00am 16.5 11.6 11.2 71 2.9 SSW 28 41 15 22 1017.0 1016.8 -
22/04:30am 16.6 11.7 11.3 71 2.9 SSW 28 41 15 22 1016.8 1016.6 -
22/04:00am 16.7 11.7 10.8 68 3.2 SSW 28 37 15 20 1016.6 1016.4 -
22/03:30am 16.5 12.3 11.0 70 3.0 SSW 24 41 13 22 1016.4 1016.2 -
22/03:00am 16.4 12.5 10.7 69 3.0 SSW 22 32 12 17 1016.2 1016.0 -
22/02:30am 16.5 12.9 10.4 67 3.2 SSW 20 37 11 20 1016.1 1015.9 -
22/02:00am 16.4 11.7 10.7 69 3.0 SSW 26 35 14 19 1016.2 1016.0 0.0
22/01:30am 16.6 12.0 11.1 70 3.0 SSW 26 39 14 21 1016.3 1016.1 -
22/01:00am 16.7 12.4 10.8 68 3.2 SSW 24 35 13 19 1016.2 1016.0 -
22/12:30am 16.6 12.0 10.9 69 3.1 SSW 26 37 14 20 1016.1 1015.9 -
22/12:00am 16.8 11.6 10.2 65 3.5 SSW 28 39 15 21 1016.2 1016.0 -
 
Date/Time
EST
Temp
°C
App
Temp
°C
Dew
Point
°C
Rel
Hum
%
Delta-T
°C
Wind Press
QNH
hPa
Press
MSL
hPa
Rain since
9am
mm
Dir  Spd
km/h
Gust
km/h
Spd
kts
Gust
kts
21/11:30pm 16.9 12.5 10.5 66 3.4 SSW 24 37 13 20 1016.2 1016.0 -
21/11:00pm 16.6 12.8 12.4 76 2.3 SSW 24 37 13 20 1016.2 1016.0 -
21/10:30pm 16.4 12.5 12.0 75 2.4 SSW 24 39 13 21 1016.1 1015.9 -
21/10:00pm 16.7 12.9 12.3 75 2.4 SSW 24 39 13 21 1016.2 1016.0 -
21/09:30pm 16.5 13.0 12.3 76 2.3 SW 22 33 12 18 1015.9 1015.7 -
21/09:00pm 16.3 11.5 13.0 81 1.8 SW 30 50 16 27 1016.0 1015.8 -
21/08:54pm 16.7 12.3 12.8 78 2.2 SW 28 50 15 27 1016.0 1015.8 -
21/08:30pm 16.8 13.4 10.6 67 3.3 SW 19 28 10 15 1015.9 1015.7 -
21/08:00pm 17.0 13.2 11.3 69 3.1 SW 22 32 12 17 1015.9 1015.7 -
21/07:30pm 17.1 12.7 10.5 65 3.5 SSW 24 35 13 19 1015.9 1015.7 -
21/07:00pm 17.1 13.2 10.7 66 3.4 SW 22 33 12 18 1015.8 1015.6 -
21/06:30pm 16.9 13.1 11.2 69 3.1 SW 22 32 12 17 1015.7 1015.5 -
21/06:00pm 17.2 13.0 11.0 67 3.4 SW 24 37 13 20 1015.4 1015.1 -
21/05:30pm 17.0 13.0 10.6 66 3.4 SW 22 30 12 16 1015.3 1015.0 0.8
21/05:00pm 16.6 12.9 10.0 65 3.5 SW 20 32 11 17 1015.1 1014.8 0.8
21/04:30pm 16.9 12.9 10.3 65 3.5 SW 22 32 12 17 1014.6 1014.3 0.6
21/04:00pm 16.8 12.7 10.2 65 3.5 SW 22 35 12 19 1014.3 1014.0 0.6
21/03:30pm 17.1 13.7 10.7 66 3.4 SSW 19 33 10 18 1014.2 1013.9 0.6
21/03:00pm 17.5 14.0 10.9 65 3.6 SSW 20 33 11 18 1013.9 1013.6 0.6
21/02:30pm 17.6 13.8 11.2 66 3.5 SSW 22 37 12 20 1013.8 1013.5 0.6
21/02:00pm 17.3 13.4 12.2 72 2.8 SSW 24 33 13 18 1013.5 1013.3 0.6
21/01:30pm 18.0 14.1 12.2 69 3.2 SSW 24 32 13 17 1013.3 1013.1 0.6
21/01:00pm 16.1 13.3 13.2 83 1.6 SSW 20 37 11 20 1013.2 1013.0 0.6
21/12:30pm 17.8 15.1 14.5 81 1.9 SSW 22 41 12 22 1013.1 1012.9 0.0
21/12:00pm 18.6 15.6 13.7 73 2.8 SSW 22 32 12 17 1013.1 1012.9 0.0
21/11:30am 18.3 14.2 12.7 70 3.1 SW 26 33 14 18 1013.1 1012.9 0.0
21/11:00am 19.4 16.0 13.6 69 3.3 SW 24 33 13 18 1013.2 1013.0 0.0
21/10:30am 19.2 15.7 13.4 69 3.3 SW 24 32 13 17 1013.4 1013.2 0.0
21/10:00am 18.9 15.8 14.4 75 2.6 SW 24 33 13 18 1013.7 1013.4 0.0
21/09:30am 18.7 15.3 13.8 73 2.8 WSW 24 32 13 17 1013.7 1013.4 0.0
21/09:00am 19.3 14.9 13.0 67 3.6 WSW 28 41 15 22 1013.7 1013.4 0.0
21/08:30am 18.9 14.9 12.9 68 3.4 W 26 39 14 21 1013.9 1013.6 0.0
21/08:00am 18.2 13.9 13.1 72 2.9 W 28 41 15 22 1014.0 1013.7 0.2
21/07:30am 18.3 14.1 13.4 73 2.8 WSW 28 37 15 20 1013.8 1013.5 0.2
21/07:00am 17.5 13.2 13.2 76 2.4 W 28 41 15 22 1013.5 1013.3 0.2
21/06:30am 17.4 12.7 11.9 70 3.0 W 28 39 15 21 1013.3 1013.1 0.2
21/06:00am 17.3 12.2 11.8 70 3.0 W 30 41 16 22 1012.9 1012.7 0.2
21/05:30am 17.1 12.8 12.0 72 2.8 W 26 35 14 19 1012.7 1012.5 0.2
21/05:00am 17.0 12.5 12.5 75 2.5 W 28 37 15 20 1012.4 1012.2 0.2
21/04:30am 16.9 12.4 11.4 70 3.0 W 26 37 14 20 1012.2 1012.0 0.2
21/04:00am 17.1 12.9 12.4 74 2.6 W 26 33 14 18 1012.0 1011.8 0.2
21/03:30am 16.7 12.3 11.6 72 2.8 W 26 33 14 18 1011.8 1011.6 0.0
21/03:00am 16.7 11.8 11.2 70 3.0 W 28 39 15 21 1011.9 1011.7 0.0
21/02:30am 16.1 13.6 12.3 78 2.1 WSW 17 28 9 15 1012.1 1011.9 0.0
21/02:00am 16.6 13.2 11.3 71 2.9 W 20 30 11 16 1012.3 1012.1 0.0
21/01:30am 15.9 11.0 11.3 74 2.5 W 28 41 15 22 1012.6 1012.4 0.0
21/01:00am 16.9 13.7 11.8 72 2.8 W 20 30 11 16 1012.6 1012.4 0.0
21/12:30am 16.8 13.1 10.2 65 3.5 WSW 20 30 11 16 1012.6 1012.4 0.0
21/12:00am 16.4 13.4 10.7 69 3.1 WSW 17 26 9 14 1012.7 1012.5 0.0
 
Date/Time
EST
Temp
°C
App
Temp
°C
Dew
Point
°C
Rel
Hum
%
Delta-T
°C
Wind Press
QNH
hPa
Press
MSL
hPa
Rain since
9am
mm
Dir  Spd
km/h
Gust
km/h
Spd
kts
Gust
kts
20/11:30pm 16.3 13.3 10.8 70 2.9 W 17 26 9 14 1012.8 1012.6 0.0
20/11:00pm 16.9 13.6 11.0 68 3.2 WSW 19 30 10 16 1012.6 1012.4 0.0
20/10:30pm 16.6 14.2 11.3 71 2.9 WSW 15 19 8 10 1012.8 1012.6 0.0
20/10:00pm 16.5 13.6 11.0 70 3.0 SW 17 24 9 13 1012.8 1012.6 0.0
20/09:30pm 16.6 13.2 10.5 67 3.3 WSW 19 28 10 15 1012.7 1012.5 0.0
20/09:00pm 16.7 12.7 10.3 66 3.4 WSW 22 30 12 16 1012.9 1012.7 0.0
20/08:30pm 16.9 13.7 11.2 69 3.1 WSW 19 28 10 15 1012.9 1012.7 0.0
20/08:00pm 17.0 13.2 11.1 68 3.2 WSW 22 32 12 17 1012.7 1012.5 0.0
20/07:30pm 16.4 13.0 10.5 68 3.1 WSW 19 30 10 16 1012.6 1012.4 0.0
20/07:00pm 16.5 12.9 10.6 68 3.2 WSW 20 28 11 15 1012.6 1012.4 0.0
20/06:30pm 16.4 11.8 10.9 70 3.0 SW 26 35 14 19 1012.4 1012.2 0.0
20/06:00pm 16.4 13.2 12.0 75 2.4 SW 20 32 11 17 1012.2 1012.0 0.0
20/05:30pm 16.8 12.7 11.3 70 3.0 SW 24 35 13 19 1011.9 1011.7 0.0
20/05:00pm 17.2 13.4 11.0 67 3.4 WSW 22 32 12 17 1011.6 1011.4 0.0
20/04:30pm 17.1 12.8 10.7 66 3.4 WSW 24 33 13 18 1011.5 1011.3 0.0
20/04:00pm 16.9 12.5 10.3 65 3.5 WSW 24 35 13 19 1011.3 1011.1 0.0
20/03:30pm 17.3 12.8 10.2 63 3.8 WSW 24 35 13 19 1011.0 1010.8 0.0
20/03:00pm 18.2 14.5 11.5 65 3.7 WSW 22 33 12 18 1010.9 1010.7 0.0
20/02:30pm 17.8 13.6 11.1 65 3.6 SW 24 32 13 17 1010.7 1010.5 0.0
20/02:00pm 18.4 14.4 11.9 66 3.6 SW 24 33 13 18 1010.3 1010.1 0.0
20/01:30pm 17.7 13.2 11.3 66 3.5 SW 26 35 14 19 1010.2 1010.0 0.0
20/01:00pm 18.4 13.9 11.5 64 3.8 SW 26 33 14 18 1010.1 1009.9 0.0
20/12:30pm 17.7 13.8 12.2 70 3.1 SW 24 33 13 18 1009.9 1009.7 0.0
20/12:00pm 18.1 13.9 12.5 70 3.1 WSW 26 37 14 20 1009.9 1009.7 0.0
20/11:30am 18.5 14.3 12.5 68 3.4 SW 26 35 14 19 1009.8 1009.6 0.0
20/11:00am 17.6 14.4 13.1 75 2.5 SSW 22 32 12 17 1010.0 1009.8 0.0
20/10:30am 18.2 14.5 12.6 70 3.1 SW 24 35 13 19 1010.3 1010.1 0.0
20/10:00am 18.1 14.0 11.4 65 3.7 SW 24 33 13 18 1010.6 1010.4 0.0
20/09:30am 17.9 14.9 12.1 69 3.2 SW 19 30 10 16 1010.8 1010.6 0.0
20/09:00am 17.5 14.6 12.4 72 2.8 WSW 19 28 10 15 1010.8 1010.6 0.0
20/08:30am 17.6 15.7 12.9 74 2.6 WSW 15 19 8 10 1010.7 1010.5 0.0
20/08:00am 16.5 14.3 13.4 82 1.8 SW 17 20 9 11 1010.6 1010.4 8.4
20/07:30am 14.5 13.5 13.5 94 0.6 WSW 11 15 6 8 1010.7 1010.5 8.4
20/07:00am 13.5 12.7 12.9 96 0.3 W 9 11 5 6 1010.3 1010.1 8.4
20/06:30am 12.8 12.2 12.2 96 0.3 WNW 7 9 4 5 1009.8 1009.6 8.4
20/06:01am 12.7 12.0 11.9 95 0.4 NW 7 7 4 4 1009.6 1009.4 8.4
20/06:00am 12.7 12.0 11.9 95 0.4 NW 7 7 4 4 1009.5 1009.3 8.4
20/05:30am 12.8 12.1 11.9 94 0.5 NW 7 11 4 6 1009.8 1009.6 7.4
20/05:05am 12.6 5.6 10.1 85 1.3 W 37 65 20 35 1009.9 1009.7 6.0
20/05:00am 13.0 6.5 10.5 85 1.3 W 35 65 19 35 1009.9 1009.7 4.6
20/04:59am 13.4 7.6 10.8 84 1.4 W 32 65 17 35 1009.9 1009.7 3.8
20/04:58am 13.8 8.9 11.3 85 1.3 W 28 65 15 35 1009.6 1009.4 2.8
20/04:55am 15.2 12.6 13.1 87 1.2 W 19 46 10 25 1009.2 1009.0 2.4
20/04:30am 14.9 13.7 11.5 80 1.8 WNW 9 13 5 7 1008.7 1008.5 2.4
20/04:00am 14.8 14.0 11.6 81 1.7 NNW 7 13 4 7 1008.7 1008.5 2.4
20/03:30am 15.2 14.4 11.8 80 1.8 NNW 7 13 4 7 1009.0 1008.8 2.4
20/03:00am 14.3 13.5 11.6 84 1.5 NNW 7 11 4 6 1009.1 1008.9 2.4
20/02:30am 14.7 14.1 12.2 85 1.4 N 7 11 4 6 1009.2 1009.0 2.4
20/02:00am 14.0 13.3 11.9 87 1.1 NNW 7 9 4 5 1009.3 1009.1 2.4
20/01:30am 13.7 12.8 11.4 86 1.2 N 7 11 4 6 1009.1 1008.9 2.4
20/01:00am 13.3 12.9 11.2 87 1.1 W 4 9 2 5 1009.1 1008.9 2.4
20/12:30am 12.5 12.9 11.2 92 0.7 CALM 0 0 0 0 1009.5 1009.3 2.4
20/12:00am 12.6 12.9 11.0 90 0.8 CALM 0 0 0 0 1009.6 1009.4 2.4
 
Date/Time
EST
Temp
°C
App
Temp
°C
Dew
Point
°C
Rel
Hum
%
Delta-T
°C
Wind Press
QNH
hPa
Press
MSL
hPa
Rain since
9am
mm
Dir  Spd
km/h
Gust
km/h
Spd
kts
Gust
kts
19/11:30pm 12.4 12.8 11.3 93 0.6 CALM 0 0 0 0 1010.1 1009.9 2.4
19/11:00pm 13.2 12.4 10.9 86 1.2 SSW 6 9 3 5 1010.3 1010.1 2.4
19/10:40pm 14.1 11.2 11.1 82 1.6 SW 17 26 9 14 1010.7 1010.5 2.4
19/10:30pm 13.9 10.3 11.8 87 1.1 SW 22 33 12 18 1010.7 1010.5 2.4
19/10:18pm 14.1 11.0 12.1 88 1.1 WNW 20 50 11 27 1011.8 1011.6 1.4
19/10:16pm 14.6 12.0 12.1 85 1.4 NW 17 50 9 27 1011.7 1011.5 0.6
19/10:00pm 15.1 13.6 10.7 75 2.3 NNW 9 17 5 9 1010.8 1010.6 0.2
19/09:30pm 16.6 15.7 12.6 77 2.2 NNW 9 13 5 7 1010.8 1010.6 0.2
19/09:00pm 16.7 16.1 12.3 75 2.4 NNE 7 13 4 7 1010.8 1010.6 0.2
19/08:30pm 16.5 15.8 11.9 74 2.5 N 7 11 4 6 1011.0 1010.8 0.2
19/08:00pm 16.8 16.0 11.7 72 2.8 N 7 11 4 6 1011.4 1011.2 0.2
19/07:30pm 16.3 15.1 10.4 68 3.1 N 7 13 4 7 1011.4 1011.2 0.2
19/07:00pm 16.2 15.3 11.2 72 2.7 N 7 11 4 6 1011.2 1011.0 0.2
19/06:30pm 15.8 14.9 10.8 72 2.7 N 6 7 3 4 1011.5 1011.3 0.2
19/06:00pm 15.4 14.5 10.6 73 2.6 N 6 7 3 4 1011.7 1011.5 0.2
19/05:30pm 15.1 14.0 10.5 74 2.4 NNW 7 9 4 5 1011.7 1011.5 0.2
19/05:00pm 15.2 14.3 10.6 74 2.4 NW 6 9 3 5 1011.4 1011.2 0.2
19/04:30pm 15.6 14.5 10.8 73 2.6 WNW 7 9 4 5 1011.5 1011.3 0.2
19/04:00pm 16.3 15.5 11.2 72 2.8 W 6 9 3 5 1011.0 1010.8 0.2

Other Formats:

Comma delimited format used in spreadsheet applications
http://www.bom.gov.au/fwo/IDN60801/IDN60801.94996.axf

JavaScript Object Notation format (JSON) in row-major order
http://www.bom.gov.au/fwo/IDN60801/IDN60801.94996.json